createdAt,value
2023-05-13T00:00:18.124Z,6.32
2023-05-13T00:02:45.482Z,7.97
2023-05-13T00:05:12.786Z,6.63
2023-05-13T00:07:41.678Z,7.05
2023-05-13T00:10:09.567Z,6.95
2023-05-13T00:12:37.221Z,6.63
2023-05-13T00:15:05.197Z,6.45
2023-05-13T00:17:32.548Z,6.30
2023-05-13T00:19:59.919Z,7.78
2023-05-13T00:22:27.208Z,6.38
2023-05-13T00:24:54.546Z,7.53
2023-05-13T00:27:21.793Z,6.72
2023-05-13T00:29:49.063Z,6.85
2023-05-13T00:32:16.534Z,7.20
2023-05-13T00:34:43.821Z,6.15
2023-05-13T00:37:12.087Z,6.30
2023-05-13T00:39:39.302Z,6.18
2023-05-13T00:42:06.706Z,6.43
2023-05-13T00:44:34.766Z,7.63
2023-05-13T00:47:02.361Z,5.63
2023-05-13T00:49:29.712Z,6.30
2023-05-13T00:51:57.332Z,6.63
2023-05-13T00:54:24.616Z,6.00
2023-05-13T00:56:56.707Z,6.78
2023-05-13T00:59:28.998Z,6.20
2023-05-13T01:01:59.007Z,5.65
2023-05-13T01:05:03.061Z,5.70
2023-05-13T01:07:59.506Z,5.82
2023-05-13T01:10:32.545Z,5.50
2023-05-13T01:13:04.491Z,5.85
2023-05-13T01:15:34.192Z,5.57
2023-05-13T01:18:10.718Z,5.60
2023-05-13T01:20:42.930Z,5.45
2023-05-13T01:23:13.350Z,5.80
2023-05-13T01:25:41.485Z,5.88
2023-05-13T01:28:10.120Z,5.82
2023-05-13T01:30:37.680Z,5.35
2023-05-13T01:33:05.248Z,5.53
2023-05-13T01:35:33.326Z,5.68
2023-05-13T01:38:02.504Z,5.38
2023-05-13T01:40:33.029Z,5.22
2023-05-13T01:43:01.004Z,5.30
2023-05-13T01:45:29.959Z,5.15
2023-05-13T01:47:57.397Z,5.13
2023-05-13T01:50:24.898Z,5.25
2023-05-13T01:52:52.307Z,5.20
2023-05-13T01:55:19.848Z,5.50
2023-05-13T01:57:47.178Z,5.30
2023-05-13T02:00:15.029Z,5.35
2023-05-13T02:02:42.531Z,5.60
2023-05-13T02:05:10.130Z,5.22
2023-05-13T02:07:37.414Z,5.45
2023-05-13T02:10:05.115Z,5.82
2023-05-13T02:12:32.489Z,4.97
2023-05-13T02:14:59.774Z,4.93
2023-05-13T02:17:27.101Z,4.93
2023-05-13T02:19:54.399Z,5.47
2023-05-13T02:22:21.989Z,5.45
2023-05-13T02:24:49.273Z,5.20
2023-05-13T02:27:16.659Z,5.13
2023-05-13T02:29:43.983Z,4.75
2023-05-13T02:32:11.345Z,4.80
2023-05-13T02:34:38.645Z,4.13
2023-05-13T02:37:06.377Z,4.80
2023-05-13T02:39:33.637Z,6.30
2023-05-13T02:42:00.944Z,4.90
2023-05-13T02:44:28.256Z,4.93
2023-05-13T02:46:55.580Z,4.80
2023-05-13T02:49:22.862Z,5.20
2023-05-13T02:51:50.367Z,4.80
2023-05-13T02:54:17.693Z,5.57
2023-05-13T02:56:44.963Z,5.13
2023-05-13T02:59:12.247Z,4.50
2023-05-13T03:01:39.494Z,4.50
2023-05-13T03:04:06.807Z,5.15
2023-05-13T03:06:34.087Z,4.88
2023-05-13T03:09:01.380Z,4.90
2023-05-13T03:11:28.691Z,4.88
2023-05-13T03:13:55.916Z,4.80
2023-05-13T03:16:23.248Z,5.50
2023-05-13T03:18:50.722Z,4.57
2023-05-13T03:21:18.131Z,5.28
2023-05-13T03:23:45.426Z,5.15
2023-05-13T03:26:12.658Z,5.07
2023-05-13T03:28:39.960Z,4.95
2023-05-13T03:31:07.340Z,4.63
2023-05-13T03:33:34.605Z,4.35
2023-05-13T03:36:01.886Z,4.72
2023-05-13T03:38:29.237Z,5.47
2023-05-13T03:40:56.503Z,5.25
2023-05-13T03:43:24.069Z,5.13
2023-05-13T03:45:51.651Z,4.97
2023-05-13T03:48:18.914Z,4.78
2023-05-13T03:50:46.386Z,5.20
2023-05-13T03:53:13.727Z,5.05
2023-05-13T03:55:41.228Z,5.15
2023-05-13T03:58:14.245Z,5.35
2023-05-13T04:00:42.131Z,5.13
2023-05-13T04:03:09.485Z,5.10
2023-05-13T04:05:36.800Z,6.47
2023-05-13T04:08:04.280Z,4.90
2023-05-13T04:10:31.726Z,5.65
2023-05-13T04:12:58.970Z,5.50
2023-05-13T04:15:26.294Z,5.90
2023-05-13T04:17:53.993Z,5.30
2023-05-13T04:20:21.594Z,6.10
2023-05-13T04:22:49.374Z,5.72
2023-05-13T04:25:16.928Z,5.68
2023-05-13T04:27:44.470Z,6.13
2023-05-13T04:30:11.897Z,6.22
2023-05-13T04:32:39.545Z,5.00
2023-05-13T04:35:09.794Z,5.70
2023-05-13T04:37:37.090Z,5.47
2023-05-13T04:40:04.677Z,7.10
2023-05-13T04:42:31.903Z,5.88
2023-05-13T04:44:59.201Z,5.32
2023-05-13T04:47:26.538Z,5.82
2023-05-13T04:49:53.911Z,5.43
2023-05-13T04:52:21.405Z,6.28
2023-05-13T04:54:48.697Z,9.00
2023-05-13T04:57:16.047Z,5.75
2023-05-13T04:59:43.379Z,5.45
2023-05-13T05:02:10.722Z,6.00
2023-05-13T05:04:38.039Z,6.40
2023-05-13T05:07:05.445Z,5.47
2023-05-13T05:09:32.692Z,5.82
2023-05-13T05:11:59.921Z,5.78
2023-05-13T05:14:27.190Z,6.03
2023-05-13T05:16:54.641Z,6.28
2023-05-13T05:19:24.170Z,5.63
2023-05-13T05:21:54.528Z,5.60
2023-05-13T05:24:21.959Z,6.63
2023-05-13T05:26:49.227Z,5.75
2023-05-13T05:29:16.538Z,5.72
2023-05-13T05:31:44.216Z,6.18
2023-05-13T05:34:12.041Z,6.10
2023-05-13T05:36:39.264Z,7.40
2023-05-13T05:39:06.652Z,6.10
2023-05-13T05:41:34.199Z,6.95
2023-05-13T05:44:01.463Z,5.70
2023-05-13T05:46:28.787Z,6.07
2023-05-13T05:48:56.079Z,6.20
2023-05-13T05:51:23.415Z,6.03
2023-05-13T05:53:50.751Z,5.80
2023-05-13T05:56:18.073Z,5.70
2023-05-13T05:58:45.405Z,5.53
2023-05-13T06:01:12.766Z,7.07
2023-05-13T06:03:40.168Z,6.13
2023-05-13T06:06:07.739Z,5.82
2023-05-13T06:08:35.131Z,7.10
2023-05-13T06:11:02.440Z,7.07
2023-05-13T06:13:29.836Z,6.20
2023-05-13T06:15:57.266Z,6.63
2023-05-13T06:18:25.624Z,7.07
2023-05-13T06:20:52.962Z,8.38
2023-05-13T06:23:20.346Z,6.43
2023-05-13T06:25:47.672Z,7.88
2023-05-13T06:28:15.033Z,7.72
2023-05-13T06:30:42.289Z,7.78
2023-05-13T06:33:10.573Z,8.02
2023-05-13T06:35:38.426Z,7.72
2023-05-13T06:38:06.106Z,6.60
2023-05-13T06:40:33.392Z,6.75
2023-05-13T06:43:00.736Z,7.43
2023-05-13T06:45:28.078Z,6.28
2023-05-13T06:47:55.505Z,6.25
2023-05-13T06:50:23.030Z,6.00
2023-05-13T06:52:50.527Z,8.10
2023-05-13T06:55:19.095Z,6.55
2023-05-13T06:57:47.234Z,7.45
2023-05-13T07:00:15.564Z,8.85
2023-05-13T07:02:42.983Z,7.82
2023-05-13T07:05:11.581Z,9.52
2023-05-13T07:07:39.078Z,12.10
2023-05-13T07:10:06.673Z,12.27
2023-05-13T07:12:34.333Z,9.15
2023-05-13T07:15:01.555Z,9.38
2023-05-13T07:17:29.130Z,11.18
2023-05-13T07:19:56.884Z,9.02
2023-05-13T07:22:24.504Z,11.48
2023-05-13T07:24:51.764Z,10.77
2023-05-13T07:27:19.121Z,11.25
2023-05-13T07:29:46.557Z,12.98
2023-05-13T07:32:13.927Z,12.18
2023-05-13T07:34:41.522Z,13.40
2023-05-13T07:37:08.894Z,11.35
2023-05-13T07:39:36.212Z,10.80
2023-05-13T07:42:04.497Z,11.85
2023-05-13T07:44:31.801Z,11.90
2023-05-13T07:46:59.189Z,13.57
2023-05-13T07:49:26.556Z,14.18
2023-05-13T07:51:53.831Z,14.18
2023-05-13T07:54:21.204Z,12.27
2023-05-13T07:56:48.439Z,15.35
2023-05-13T07:59:15.769Z,12.73
2023-05-13T08:01:43.620Z,12.93
2023-05-13T08:04:11.092Z,15.30
2023-05-13T08:06:38.546Z,13.25
2023-05-13T08:09:06.557Z,13.63
2023-05-13T08:11:33.836Z,14.40
2023-05-13T08:14:01.131Z,17.60
2023-05-13T08:16:28.446Z,14.40
2023-05-13T08:18:55.813Z,14.23
2023-05-13T08:21:23.297Z,15.15
2023-05-13T08:23:52.047Z,16.08
2023-05-13T08:26:19.455Z,17.13
2023-05-13T08:28:46.786Z,15.25
2023-05-13T08:31:14.267Z,15.77
2023-05-13T08:33:42.772Z,14.27
2023-05-13T08:36:10.209Z,14.60
2023-05-13T08:38:37.534Z,17.35
2023-05-13T08:41:06.439Z,15.48
2023-05-13T08:43:34.431Z,12.82
2023-05-13T08:46:04.590Z,11.98
2023-05-13T08:48:33.727Z,14.00
2023-05-13T08:51:02.533Z,16.60
2023-05-13T08:53:31.524Z,14.65
2023-05-13T08:56:00.361Z,15.48
2023-05-13T08:58:28.057Z,15.93
2023-05-13T09:00:55.917Z,15.07
2023-05-13T09:03:23.735Z,13.48
2023-05-13T09:05:51.598Z,13.98
2023-05-13T09:08:18.988Z,13.07
2023-05-13T09:10:46.501Z,12.82
2023-05-13T09:13:14.410Z,12.35
2023-05-13T09:15:45.880Z,11.70
2023-05-13T09:18:17.905Z,12.32
2023-05-13T09:20:46.361Z,11.95
2023-05-13T09:23:14.259Z,13.35
2023-05-13T09:25:41.544Z,12.35
2023-05-13T09:28:08.949Z,11.05
2023-05-13T09:30:38.698Z,10.73
2023-05-13T09:33:13.614Z,12.43
2023-05-13T09:35:49.370Z,10.43
2023-05-13T09:38:19.311Z,11.07
2023-05-13T09:41:00.337Z,12.27
2023-05-13T09:43:32.783Z,10.10
2023-05-13T09:46:04.867Z,11.40
2023-05-13T09:48:37.969Z,9.52
2023-05-13T09:51:05.906Z,11.98
2023-05-13T09:53:33.182Z,8.85
2023-05-13T09:56:01.696Z,9.57
2023-05-13T09:58:31.060Z,10.45
2023-05-13T10:00:59.186Z,9.68
2023-05-13T10:03:28.521Z,9.85
2023-05-13T10:05:56.811Z,10.60
2023-05-13T10:08:24.836Z,12.68
2023-05-13T10:10:55.532Z,11.52
2023-05-13T10:13:25.646Z,10.55
2023-05-13T10:15:54.693Z,9.65
2023-05-13T10:18:24.094Z,11.57
2023-05-13T10:20:53.670Z,10.40
2023-05-13T10:23:24.023Z,9.55
2023-05-13T10:25:53.224Z,9.40
2023-05-13T10:28:20.882Z,9.45
2023-05-13T10:30:51.633Z,8.95
2023-05-13T10:33:19.255Z,8.20
2023-05-13T10:36:16.477Z,7.80
2023-05-13T10:39:01.554Z,9.02
2023-05-13T10:41:47.706Z,9.07
2023-05-13T10:44:15.050Z,8.25
2023-05-13T10:46:43.828Z,8.75
2023-05-13T10:49:18.327Z,9.13
2023-05-13T10:51:48.359Z,7.95
2023-05-13T10:54:21.308Z,8.10
2023-05-13T10:56:57.727Z,8.35
2023-05-13T10:59:25.233Z,8.38
2023-05-13T11:01:53.385Z,8.07
2023-05-13T11:04:21.686Z,8.43
2023-05-13T11:06:50.759Z,8.73
2023-05-13T11:09:21.164Z,7.65
2023-05-13T11:11:53.556Z,8.20
2023-05-13T11:14:22.781Z,8.23
2023-05-13T11:16:55.327Z,9.30
2023-05-13T11:19:32.456Z,8.98
2023-05-13T11:22:13.722Z,9.45
2023-05-13T11:24:44.319Z,8.80
2023-05-13T11:27:21.336Z,8.15
2023-05-13T11:29:50.390Z,9.38
2023-05-13T11:32:52.298Z,9.00
2023-05-13T11:35:33.226Z,9.32
2023-05-13T11:38:02.445Z,8.30
2023-05-13T11:40:33.546Z,8.82
2023-05-13T11:43:01.709Z,8.45
2023-05-13T11:45:31.171Z,9.30
2023-05-13T11:47:59.079Z,8.90
2023-05-13T11:50:30.857Z,9.15
2023-05-13T11:53:00.603Z,9.13
2023-05-13T11:55:30.181Z,8.23
2023-05-13T11:57:58.601Z,9.73
2023-05-13T12:00:34.576Z,9.57
2023-05-13T12:03:09.331Z,8.90
2023-05-13T12:05:37.133Z,9.52
2023-05-13T12:08:04.727Z,9.48
2023-05-13T12:10:31.993Z,10.68
2023-05-13T12:12:59.356Z,10.63
2023-05-13T12:15:26.779Z,9.68
2023-05-13T12:17:54.709Z,10.95
2023-05-13T12:20:23.993Z,11.27
2023-05-13T12:22:54.252Z,10.48
2023-05-13T12:25:47.734Z,9.70
2023-05-13T12:28:18.045Z,11.07
2023-05-13T12:30:51.373Z,10.63
2023-05-13T12:33:49.439Z,9.23
2023-05-13T12:36:20.122Z,10.45
2023-05-13T12:39:00.420Z,10.15
2023-05-13T12:41:39.366Z,9.90
2023-05-13T12:44:13.515Z,10.93
2023-05-13T12:46:54.321Z,9.95
2023-05-13T12:49:22.497Z,10.65
2023-05-13T12:51:51.673Z,10.05
2023-05-13T12:54:19.119Z,10.38
2023-05-13T12:56:46.580Z,10.25
2023-05-13T12:59:14.467Z,12.07
2023-05-13T13:01:42.880Z,10.27
2023-05-13T13:04:10.559Z,10.65
2023-05-13T13:06:38.127Z,11.45
2023-05-13T13:09:05.969Z,11.57
2023-05-13T13:11:33.228Z,10.73
2023-05-13T13:14:00.580Z,11.27
2023-05-13T13:16:27.911Z,10.80
2023-05-13T13:18:58.946Z,10.70
2023-05-13T13:21:27.209Z,11.50
2023-05-13T13:23:54.499Z,11.10
2023-05-13T13:26:23.320Z,11.77
2023-05-13T13:28:50.684Z,11.07
2023-05-13T13:31:18.011Z,11.48
2023-05-13T13:33:45.486Z,10.57
2023-05-13T13:36:12.888Z,11.13
2023-05-13T13:38:40.232Z,12.27
2023-05-13T13:41:07.655Z,10.73
2023-05-13T13:43:34.921Z,12.07
2023-05-13T13:46:02.285Z,10.90
2023-05-13T13:48:29.659Z,11.70
2023-05-13T13:50:58.502Z,10.27
2023-05-13T13:53:25.790Z,11.75
2023-05-13T13:55:53.051Z,11.63
2023-05-13T13:58:20.376Z,10.43
2023-05-13T14:00:47.669Z,10.38
2023-05-13T14:03:15.071Z,10.63
2023-05-13T14:05:42.486Z,10.30
2023-05-13T14:08:09.784Z,11.07
2023-05-13T14:10:37.101Z,11.43
2023-05-13T14:13:04.370Z,10.50
2023-05-13T14:15:31.749Z,9.80
2023-05-13T14:17:59.210Z,10.18
2023-05-13T14:20:28.963Z,9.50
2023-05-13T14:22:56.640Z,9.23
2023-05-13T14:25:23.906Z,10.45
2023-05-13T14:27:51.255Z,8.88
2023-05-13T14:30:18.522Z,9.98
2023-05-13T14:32:45.937Z,14.20
2023-05-13T14:35:13.663Z,9.80
2023-05-13T14:37:41.291Z,10.93
2023-05-13T14:40:09.649Z,11.80
2023-05-13T14:42:37.041Z,10.20
2023-05-13T14:45:04.734Z,9.55
2023-05-13T14:47:32.230Z,10.32
2023-05-13T14:49:59.625Z,10.95
2023-05-13T14:52:26.959Z,10.00
2023-05-13T14:54:54.963Z,10.98
2023-05-13T14:57:22.461Z,11.40
2023-05-13T14:59:49.779Z,9.88
2023-05-13T15:02:17.646Z,10.32
2023-05-13T15:04:45.071Z,11.27
2023-05-13T15:07:12.595Z,9.93
2023-05-13T15:09:39.878Z,11.07
2023-05-13T15:12:07.763Z,10.93
2023-05-13T15:14:35.069Z,10.00
2023-05-13T15:17:02.628Z,9.18
2023-05-13T15:19:30.700Z,8.70
2023-05-13T15:21:58.021Z,11.85
2023-05-13T15:24:25.332Z,10.60
2023-05-13T15:26:52.679Z,10.27
2023-05-13T15:29:19.970Z,9.38
2023-05-13T15:31:50.998Z,10.48
2023-05-13T15:34:18.259Z,11.65
2023-05-13T15:36:45.576Z,9.07
2023-05-13T15:39:12.839Z,9.02
2023-05-13T15:41:43.674Z,10.00
2023-05-13T15:44:11.128Z,10.68
2023-05-13T15:46:38.574Z,11.27
2023-05-13T15:49:06.623Z,9.82
2023-05-13T15:51:34.651Z,8.43
2023-05-13T15:54:02.062Z,9.75
2023-05-13T15:56:29.436Z,9.48
2023-05-13T15:58:56.822Z,9.57
2023-05-13T16:01:24.093Z,9.43
2023-05-13T16:03:51.392Z,8.77
2023-05-13T16:06:18.754Z,9.25
2023-05-13T16:08:46.067Z,8.52
2023-05-13T16:11:13.510Z,10.05
2023-05-13T16:13:41.219Z,8.77
2023-05-13T16:16:08.603Z,11.80
2023-05-13T16:18:35.935Z,12.43
2023-05-13T16:21:03.331Z,14.35
2023-05-13T16:23:30.652Z,11.77
2023-05-13T16:25:57.951Z,12.93
2023-05-13T16:28:25.383Z,10.43
2023-05-13T16:30:55.892Z,9.73
2023-05-13T16:33:24.805Z,11.18
2023-05-13T16:35:52.162Z,9.82
2023-05-13T16:38:19.462Z,11.93
2023-05-13T16:40:46.780Z,10.27
2023-05-13T16:43:14.036Z,12.27
2023-05-13T16:45:42.610Z,9.18
2023-05-13T16:48:10.011Z,12.68
2023-05-13T16:50:37.576Z,11.40
2023-05-13T16:53:04.871Z,11.18
2023-05-13T16:55:32.356Z,7.97
2023-05-13T16:58:01.485Z,8.18
2023-05-13T17:00:29.009Z,9.43
2023-05-13T17:02:56.402Z,12.05
2023-05-13T17:05:23.740Z,9.75
2023-05-13T17:07:51.090Z,8.57
2023-05-13T17:10:18.408Z,10.35
2023-05-13T17:12:45.793Z,9.88
2023-05-13T17:15:13.149Z,9.70
2023-05-13T17:17:40.687Z,10.38
2023-05-13T17:20:08.508Z,13.10
2023-05-13T17:22:35.865Z,14.68
2023-05-13T17:25:03.230Z,17.42
2023-05-13T17:27:30.538Z,16.25
2023-05-13T17:29:57.802Z,16.00
2023-05-13T17:32:25.157Z,21.17
2023-05-13T17:34:52.559Z,15.63
2023-05-13T17:37:19.821Z,18.25
2023-05-13T17:39:47.072Z,18.95
2023-05-13T17:42:14.359Z,16.95
2023-05-13T17:44:41.708Z,19.15
2023-05-13T17:47:08.991Z,22.88
2023-05-13T17:49:36.339Z,17.70
2023-05-13T17:52:03.908Z,19.80
2023-05-13T17:54:31.255Z,19.00
2023-05-13T17:56:58.568Z,18.17
2023-05-13T17:59:25.856Z,14.95
2023-05-13T18:01:53.207Z,18.13
2023-05-13T18:04:20.567Z,20.63
2023-05-13T18:06:47.871Z,20.85
2023-05-13T18:09:15.443Z,21.80
2023-05-13T18:11:42.794Z,17.00
2023-05-13T18:14:10.100Z,18.85
2023-05-13T18:16:37.532Z,19.52
2023-05-13T18:19:06.095Z,17.85
2023-05-13T18:21:33.485Z,19.98
2023-05-13T18:24:00.866Z,20.88
2023-05-13T18:26:28.211Z,18.10
2023-05-13T18:28:55.565Z,21.88
2023-05-13T18:31:22.895Z,24.08
2023-05-13T18:33:50.182Z,20.20
2023-05-13T18:36:17.689Z,21.73
2023-05-13T18:38:47.822Z,18.25
2023-05-13T18:41:15.166Z,19.98
2023-05-13T18:43:42.454Z,18.85
2023-05-13T18:46:10.146Z,20.52
2023-05-13T18:48:37.550Z,16.13
2023-05-13T18:51:04.914Z,16.92
2023-05-13T18:53:32.210Z,16.00
2023-05-13T18:55:59.815Z,13.98
2023-05-13T18:58:27.971Z,13.52
2023-05-13T19:00:55.608Z,13.38
2023-05-13T19:03:23.083Z,12.10
2023-05-13T19:05:50.453Z,12.18
2023-05-13T19:08:17.760Z,10.95
2023-05-13T19:10:45.163Z,10.38
2023-05-13T19:13:13.959Z,11.93
2023-05-13T19:15:41.360Z,11.25
2023-05-13T19:18:08.701Z,12.05
2023-05-13T19:20:36.010Z,10.80
2023-05-13T19:23:03.340Z,10.45
2023-05-13T19:25:30.724Z,10.23
2023-05-13T19:27:58.122Z,10.23
2023-05-13T19:30:25.495Z,9.90
2023-05-13T19:32:52.911Z,15.10
2023-05-13T19:35:20.245Z,10.65
2023-05-13T19:37:47.519Z,13.82
2023-05-13T19:40:14.818Z,11.07
2023-05-13T19:42:42.194Z,12.43
2023-05-13T19:45:10.721Z,10.98
2023-05-13T19:47:39.534Z,11.30
2023-05-13T19:50:07.306Z,13.38
2023-05-13T19:52:34.756Z,11.75
2023-05-13T19:55:02.303Z,13.18
2023-05-13T19:57:30.119Z,11.20
2023-05-13T19:59:58.533Z,10.48
2023-05-13T20:02:25.966Z,13.50
2023-05-13T20:04:53.359Z,11.95
2023-05-13T20:07:20.672Z,11.40
2023-05-13T20:09:48.009Z,11.38
2023-05-13T20:12:15.357Z,14.15
2023-05-13T20:14:46.385Z,12.63
2023-05-13T20:17:18.744Z,11.10
2023-05-13T20:19:47.682Z,10.48
2023-05-13T20:22:16.325Z,9.90
2023-05-13T20:24:46.444Z,9.60
2023-05-13T20:27:14.083Z,11.35
2023-05-13T20:29:44.432Z,10.63
2023-05-13T20:32:11.856Z,11.88
2023-05-13T20:34:39.242Z,8.73
2023-05-13T20:37:06.750Z,9.25
2023-05-13T20:39:33.977Z,9.40
2023-05-13T20:42:01.298Z,10.32
2023-05-13T20:44:28.693Z,12.55
2023-05-13T20:46:56.527Z,9.63
2023-05-13T20:49:23.754Z,11.48
2023-05-13T20:51:51.334Z,11.55
2023-05-13T20:54:18.641Z,9.27
2023-05-13T20:56:45.932Z,9.60
2023-05-13T20:59:13.233Z,8.07
2023-05-13T21:01:41.508Z,9.48
2023-05-13T21:04:09.951Z,9.43
2023-05-13T21:06:37.365Z,8.73
2023-05-13T21:09:04.793Z,9.68
2023-05-13T21:11:32.672Z,10.02
2023-05-13T21:14:00.038Z,10.50
2023-05-13T21:16:27.469Z,10.30
2023-05-13T21:18:54.944Z,10.52
2023-05-13T21:21:22.668Z,8.60
2023-05-13T21:23:50.105Z,9.95
2023-05-13T21:26:17.669Z,8.70
2023-05-13T21:28:44.994Z,9.05
2023-05-13T21:31:12.324Z,8.90
2023-05-13T21:33:39.660Z,9.80
2023-05-13T21:36:08.595Z,8.35
2023-05-13T21:38:36.164Z,8.38
2023-05-13T21:41:03.471Z,10.20
2023-05-13T21:43:30.783Z,10.90
2023-05-13T21:45:58.113Z,9.15
2023-05-13T21:48:25.895Z,9.70
2023-05-13T21:50:53.280Z,10.60
2023-05-13T21:53:20.635Z,9.52
2023-05-13T21:55:48.276Z,9.30
2023-05-13T21:58:15.922Z,9.93
2023-05-13T22:00:43.259Z,9.65
2023-05-13T22:03:10.754Z,10.15
2023-05-13T22:05:43.681Z,8.82
2023-05-13T22:08:11.567Z,11.45
2023-05-13T22:10:39.648Z,8.65
2023-05-13T22:13:07.180Z,9.00
2023-05-13T22:15:34.523Z,8.60
2023-05-13T22:18:01.882Z,8.82
2023-05-13T22:20:29.267Z,9.55
2023-05-13T22:22:56.565Z,8.90
2023-05-13T22:25:23.840Z,11.65
2023-05-13T22:27:51.763Z,10.18
2023-05-13T22:30:19.328Z,8.82
2023-05-13T22:32:46.647Z,8.23
2023-05-13T22:35:13.966Z,8.73
2023-05-13T22:37:41.342Z,8.45
2023-05-13T22:40:11.114Z,8.43
2023-05-13T22:42:38.454Z,10.07
2023-05-13T22:45:06.617Z,9.13
2023-05-13T22:47:34.833Z,8.75
2023-05-13T22:50:02.428Z,8.88
2023-05-13T22:52:29.752Z,9.25
2023-05-13T22:54:56.976Z,9.95
2023-05-13T22:57:24.268Z,8.70
2023-05-13T22:59:51.560Z,8.27
2023-05-13T23:02:18.813Z,8.15
2023-05-13T23:04:46.087Z,9.05
2023-05-13T23:07:13.398Z,8.60
2023-05-13T23:09:40.847Z,8.73
2023-05-13T23:12:08.404Z,9.27
2023-05-13T23:14:35.982Z,8.40
2023-05-13T23:17:03.294Z,9.90
2023-05-13T23:19:30.782Z,9.15
2023-05-13T23:21:58.159Z,8.98
2023-05-13T23:24:25.476Z,10.85
2023-05-13T23:26:52.790Z,8.60
2023-05-13T23:29:20.100Z,9.25
2023-05-13T23:31:47.476Z,9.30
2023-05-13T23:34:14.847Z,9.27
2023-05-13T23:36:42.168Z,9.00
2023-05-13T23:39:09.664Z,9.15
2023-05-13T23:41:36.955Z,10.05
2023-05-13T23:44:04.886Z,8.77
2023-05-13T23:46:32.150Z,8.70
2023-05-13T23:48:59.831Z,8.95
2023-05-13T23:51:27.206Z,8.68
2023-05-13T23:53:55.524Z,9.70
2023-05-13T23:56:22.775Z,9.20
2023-05-13T23:58:50.081Z,8.77
